createdAt,value
2022-10-29T00:02:11.985Z,6.80
2022-10-29T00:04:38.647Z,6.22
2022-10-29T00:07:05.295Z,5.03
2022-10-29T00:09:31.994Z,6.18
2022-10-29T00:11:58.740Z,6.45
2022-10-29T00:14:25.754Z,4.53
2022-10-29T00:16:52.554Z,6.07
2022-10-29T00:19:19.345Z,21.45
2022-10-29T00:21:45.984Z,5.05
2022-10-29T00:24:12.575Z,5.65
2022-10-29T00:26:39.158Z,5.68
2022-10-29T00:29:05.969Z,5.20
2022-10-29T00:31:32.741Z,5.75
2022-10-29T00:33:59.322Z,5.05
2022-10-29T00:36:28.612Z,5.75
2022-10-29T00:38:57.726Z,5.15
2022-10-29T00:41:27.144Z,5.07
2022-10-29T00:44:15.704Z,5.00
2022-10-29T00:46:47.581Z,4.85
2022-10-29T00:49:15.917Z,5.28
2022-10-29T00:51:43.528Z,4.85
2022-10-29T00:54:12.270Z,6.38
2022-10-29T00:56:44.724Z,4.73
2022-10-29T00:59:12.538Z,7.90
2022-10-29T01:01:39.714Z,10.25
2022-10-29T01:04:06.719Z,5.13
2022-10-29T01:06:33.607Z,6.22
2022-10-29T01:09:00.819Z,5.50
2022-10-29T01:11:58.345Z,5.45
2022-10-29T01:14:52.992Z,5.28
2022-10-29T01:17:32.884Z,4.80
2022-10-29T01:20:43.164Z,4.97
2022-10-29T01:23:19.027Z,6.07
2022-10-29T01:26:18.423Z,4.85
2022-10-29T01:33:08.670Z,47.92
2022-10-29T01:35:51.873Z,85.95
2022-10-29T01:38:33.343Z,47.90
2022-10-29T01:40:59.880Z,9.40
2022-10-29T01:44:05.991Z,14.80
2022-10-29T01:46:54.714Z,17.65
2022-10-29T01:49:28.425Z,8.27
2022-10-29T01:51:56.857Z,10.10
2022-10-29T01:54:23.839Z,7.43
2022-10-29T01:56:55.242Z,9.15
2022-10-29T01:59:35.674Z,6.18
2022-10-29T02:02:26.196Z,7.63
2022-10-29T02:05:15.706Z,5.63
2022-10-29T02:07:54.657Z,6.18
2022-10-29T02:10:28.665Z,6.30
2022-10-29T02:12:57.118Z,5.80
2022-10-29T02:15:48.444Z,5.32
2022-10-29T02:18:16.301Z,5.63
2022-10-29T02:20:45.486Z,4.93
2022-10-29T02:23:12.719Z,6.15
2022-10-29T02:25:39.538Z,7.32
2022-10-29T02:28:06.671Z,5.53
2022-10-29T02:30:33.606Z,6.55
2022-10-29T02:33:00.340Z,7.53
2022-10-29T02:35:26.992Z,4.72
2022-10-29T02:37:53.856Z,4.13
2022-10-29T02:40:20.431Z,5.13
2022-10-29T02:42:46.911Z,4.82
2022-10-29T02:45:13.502Z,4.30
2022-10-29T02:47:40.094Z,4.72
2022-10-29T02:50:07.409Z,4.35
2022-10-29T02:52:34.153Z,4.60
2022-10-29T02:55:01.042Z,4.32
2022-10-29T02:57:30.052Z,5.03
2022-10-29T02:59:59.962Z,5.15
2022-10-29T03:02:26.786Z,5.53
2022-10-29T03:04:53.450Z,5.82
2022-10-29T03:07:20.360Z,4.53
2022-10-29T03:09:46.902Z,4.88
2022-10-29T03:12:13.424Z,5.60
2022-10-29T03:14:39.998Z,5.22
2022-10-29T03:17:06.536Z,5.78
2022-10-29T03:19:33.104Z,5.20
2022-10-29T03:21:59.659Z,5.22
2022-10-29T03:24:26.239Z,5.13
2022-10-29T03:26:52.819Z,5.50
2022-10-29T03:29:19.500Z,6.38
2022-10-29T03:31:46.086Z,5.63
2022-10-29T03:34:12.644Z,5.97
2022-10-29T03:36:39.267Z,6.38
2022-10-29T03:39:06.141Z,5.65
2022-10-29T03:41:32.806Z,6.20
2022-10-29T03:43:59.365Z,6.85
2022-10-29T03:46:25.948Z,6.68
2022-10-29T03:48:52.514Z,6.97
2022-10-29T03:51:19.077Z,6.72
2022-10-29T03:53:45.644Z,6.60
2022-10-29T03:56:12.213Z,5.65
2022-10-29T03:58:38.827Z,5.28
2022-10-29T04:01:07.835Z,5.95
2022-10-29T04:03:36.245Z,6.68
2022-10-29T04:06:09.591Z,6.15
2022-10-29T04:08:36.218Z,6.82
2022-10-29T04:11:02.825Z,6.13
2022-10-29T04:13:29.528Z,6.25
2022-10-29T04:15:56.403Z,6.32
2022-10-29T04:18:24.532Z,5.75
2022-10-29T04:29:12.040Z,7.22
2022-10-29T04:31:38.901Z,6.70
2022-10-29T04:34:06.282Z,5.93
2022-10-29T04:36:32.915Z,6.20
2022-10-29T04:38:59.585Z,6.65
2022-10-29T04:41:26.235Z,6.43
2022-10-29T04:43:52.812Z,6.15
2022-10-29T04:46:19.385Z,6.30
2022-10-29T04:48:46.007Z,5.95
2022-10-29T04:51:19.734Z,7.47
2022-10-29T04:53:46.363Z,8.18
2022-10-29T04:56:12.906Z,7.47
2022-10-29T04:58:39.566Z,7.97
2022-10-29T05:01:06.482Z,7.57
2022-10-29T05:03:33.793Z,9.00
2022-10-29T05:06:06.315Z,9.18
2022-10-29T05:08:33.649Z,8.90
2022-10-29T05:11:05.045Z,9.00
2022-10-29T05:13:32.373Z,8.77
2022-10-29T05:15:59.043Z,8.07
2022-10-29T05:18:25.798Z,7.95
2022-10-29T05:20:56.289Z,7.43
2022-10-29T05:23:23.372Z,7.82
2022-10-29T05:25:52.075Z,7.15
2022-10-29T05:28:21.196Z,7.10
2022-10-29T05:30:49.452Z,8.20
2022-10-29T05:33:18.884Z,7.60
2022-10-29T05:35:46.209Z,7.30
2022-10-29T05:38:14.049Z,6.30
2022-10-29T05:40:42.741Z,7.38
2022-10-29T05:43:09.562Z,5.87
2022-10-29T05:45:36.129Z,5.65
2022-10-29T05:48:04.415Z,5.40
2022-10-29T05:50:32.403Z,4.93
2022-10-29T05:53:04.628Z,5.22
2022-10-29T05:55:33.283Z,4.60
2022-10-29T05:58:01.946Z,4.50
2022-10-29T06:00:31.257Z,4.05
2022-10-29T06:02:58.408Z,4.68
2022-10-29T06:05:26.001Z,3.42
2022-10-29T06:08:00.764Z,4.00
2022-10-29T06:10:29.184Z,4.65
2022-10-29T06:12:55.723Z,4.05
2022-10-29T06:15:23.081Z,4.25
2022-10-29T06:17:49.874Z,4.47
2022-10-29T06:20:20.919Z,3.47
2022-10-29T06:22:47.940Z,3.95
2022-10-29T06:25:14.668Z,3.58
2022-10-29T06:27:41.205Z,4.30
2022-10-29T06:30:08.527Z,4.55
2022-10-29T06:32:35.108Z,4.22
2022-10-29T06:35:01.669Z,4.40
2022-10-29T06:37:29.666Z,4.43
2022-10-29T06:39:56.311Z,4.47
2022-10-29T06:42:22.920Z,4.05
2022-10-29T06:44:49.681Z,4.75
2022-10-29T06:47:16.212Z,4.78
2022-10-29T06:49:42.827Z,4.63
2022-10-29T06:52:09.430Z,4.15
2022-10-29T06:54:38.776Z,5.28
2022-10-29T06:57:05.466Z,4.85
2022-10-29T06:59:32.248Z,4.80
2022-10-29T07:02:02.127Z,4.00
2022-10-29T07:04:29.235Z,3.67
2022-10-29T07:06:56.172Z,4.45
2022-10-29T07:09:22.801Z,3.05
2022-10-29T07:11:49.481Z,3.72
2022-10-29T07:14:16.001Z,3.30
2022-10-29T07:16:42.758Z,3.65
2022-10-29T07:19:09.683Z,4.13
2022-10-29T07:21:37.006Z,4.60
2022-10-29T07:24:03.826Z,3.83
2022-10-29T07:26:30.553Z,3.80
2022-10-29T07:28:57.859Z,4.03
2022-10-29T07:31:25.015Z,4.30
2022-10-29T07:33:51.686Z,4.07
2022-10-29T07:36:18.265Z,3.33
2022-10-29T07:38:45.044Z,3.85
2022-10-29T07:41:11.640Z,3.90
2022-10-29T07:43:38.410Z,4.38
2022-10-29T07:46:05.092Z,3.95
2022-10-29T07:48:31.643Z,4.55
2022-10-29T07:51:05.385Z,4.40
2022-10-29T07:53:32.691Z,4.80
2022-10-29T07:55:59.606Z,4.03
2022-10-29T07:58:27.237Z,4.20
2022-10-29T08:00:54.569Z,4.65
2022-10-29T08:03:21.866Z,4.60
2022-10-29T08:05:56.276Z,4.03
2022-10-29T08:08:26.685Z,3.92
2022-10-29T08:10:53.607Z,3.80
2022-10-29T08:13:20.268Z,3.55
2022-10-29T08:15:47.170Z,3.78
2022-10-29T08:18:18.016Z,3.45
2022-10-29T08:20:45.398Z,4.00
2022-10-29T08:23:13.239Z,4.72
2022-10-29T08:25:43.052Z,4.57
2022-10-29T08:28:15.137Z,3.55
2022-10-29T08:30:44.224Z,4.60
2022-10-29T08:33:11.474Z,5.10
2022-10-29T08:35:38.275Z,5.90
2022-10-29T08:38:05.468Z,4.53
2022-10-29T08:40:56.973Z,5.65
2022-10-29T08:43:48.861Z,5.25
2022-10-29T08:46:24.778Z,10.32
2022-10-29T08:49:02.648Z,4.43
2022-10-29T08:51:37.250Z,5.18
2022-10-29T08:54:25.635Z,5.70
2022-10-29T08:56:55.165Z,4.55
2022-10-29T08:59:24.736Z,5.05
2022-10-29T09:01:55.227Z,4.03
2022-10-29T09:04:26.384Z,4.50
2022-10-29T09:07:17.854Z,4.05
2022-10-29T09:09:53.836Z,5.15
2022-10-29T09:12:39.146Z,3.78
2022-10-29T09:15:27.157Z,4.43
2022-10-29T09:18:16.588Z,3.97
2022-10-29T09:20:51.964Z,3.97
2022-10-29T09:23:25.901Z,4.20
2022-10-29T09:26:01.200Z,3.70
2022-10-29T09:28:33.975Z,4.22
2022-10-29T09:31:31.466Z,4.57
2022-10-29T09:34:04.139Z,4.22
2022-10-29T09:36:31.687Z,4.22
2022-10-29T09:39:05.193Z,4.65
2022-10-29T09:41:34.622Z,5.22
2022-10-29T09:44:04.635Z,4.22
2022-10-29T09:49:29.635Z,4.22
2022-10-29T09:52:02.527Z,4.03
2022-10-29T09:54:31.049Z,4.70
2022-10-29T09:57:00.976Z,4.25
2022-10-29T09:59:35.818Z,3.75
2022-10-29T10:02:04.458Z,4.00
2022-10-29T10:04:37.705Z,4.53
2022-10-29T10:07:05.979Z,3.60
2022-10-29T10:09:55.721Z,4.35
2022-10-29T10:12:26.645Z,3.45
2022-10-29T10:15:21.441Z,4.20
2022-10-29T10:18:04.837Z,4.85
2022-10-29T10:20:46.820Z,4.28
2022-10-29T10:23:24.684Z,4.75
2022-10-29T10:25:54.123Z,4.18
2022-10-29T10:28:25.631Z,3.45
2022-10-29T10:31:06.720Z,7.82
2022-10-29T10:33:36.062Z,3.72
2022-10-29T10:36:09.094Z,2.80
2022-10-29T10:38:54.077Z,4.70
2022-10-29T10:41:30.754Z,3.33
2022-10-29T10:44:03.776Z,3.70
2022-10-29T10:46:42.780Z,4.32
2022-10-29T10:49:20.919Z,4.40
2022-10-29T10:51:56.364Z,3.67
2022-10-29T10:54:31.417Z,3.90
2022-10-29T10:57:01.937Z,3.53
2022-10-29T10:59:43.040Z,4.78
2022-10-29T11:02:27.444Z,3.15
2022-10-29T11:05:14.976Z,3.67
2022-10-29T11:07:48.333Z,4.28
2022-10-29T11:10:18.276Z,4.25
2022-10-29T11:12:54.436Z,4.65
2022-10-29T11:15:39.383Z,5.03
2022-10-29T11:18:21.934Z,4.43
2022-10-29T11:21:05.448Z,4.05
2022-10-29T11:23:53.821Z,4.70
2022-10-29T11:26:45.223Z,3.78
2022-10-29T11:29:20.970Z,4.45
2022-10-29T11:32:11.315Z,4.03
2022-10-29T11:34:37.873Z,4.00
2022-10-29T11:37:21.352Z,4.38
2022-10-29T11:39:57.837Z,3.47
2022-10-29T11:42:25.474Z,4.18
2022-10-29T11:44:52.444Z,3.63
2022-10-29T11:47:27.294Z,3.65
2022-10-29T11:50:03.000Z,4.88
2022-10-29T11:52:46.532Z,4.72
2022-10-29T11:55:23.585Z,3.97
2022-10-29T11:58:01.369Z,5.47
2022-10-29T12:00:34.626Z,5.45
2022-10-29T12:03:16.378Z,5.22
2022-10-29T12:05:59.448Z,7.35
2022-10-29T12:08:25.910Z,5.45
2022-10-29T12:11:07.772Z,5.90
2022-10-29T12:13:43.575Z,5.45
2022-10-29T12:16:35.529Z,4.95
2022-10-29T12:19:33.488Z,6.18
2022-10-29T12:22:19.132Z,6.22
2022-10-29T12:25:26.052Z,7.18
2022-10-29T12:28:05.525Z,4.10
2022-10-29T12:33:10.505Z,4.95
2022-10-29T12:35:47.939Z,3.47
2022-10-29T12:38:40.807Z,5.10
2022-10-29T12:41:23.407Z,4.60
2022-10-29T12:43:51.653Z,3.53
2022-10-29T12:46:39.848Z,4.28
2022-10-29T12:49:37.973Z,3.85
2022-10-29T12:52:16.428Z,3.17
2022-10-29T12:54:49.683Z,3.72
2022-10-29T12:57:16.354Z,6.53
2022-10-29T12:59:44.578Z,4.40
2022-10-29T13:02:38.668Z,6.68
2022-10-29T13:05:11.214Z,3.60
2022-10-29T13:07:59.295Z,7.57
2022-10-29T13:10:35.492Z,4.70
2022-10-29T13:13:16.058Z,8.00
2022-10-29T13:15:48.075Z,5.30
2022-10-29T13:18:21.991Z,6.55
2022-10-29T13:20:51.291Z,8.80
2022-10-29T13:23:23.830Z,9.65
2022-10-29T13:25:57.284Z,5.82
2022-10-29T13:28:23.971Z,4.70
2022-10-29T13:31:13.525Z,6.35
2022-10-29T13:36:15.628Z,30.88
2022-10-29T13:39:04.603Z,9.10
2022-10-29T13:41:42.535Z,3.97
2022-10-29T13:44:19.312Z,3.03
2022-10-29T13:47:19.820Z,8.18
2022-10-29T13:49:48.612Z,4.70
2022-10-29T13:52:24.358Z,4.00
2022-10-29T13:55:00.479Z,5.00
2022-10-29T13:57:36.271Z,4.90
2022-10-29T14:00:11.960Z,3.92
2022-10-29T14:02:39.658Z,4.47
2022-10-29T14:05:13.370Z,4.47
2022-10-29T14:07:52.949Z,3.38
2022-10-29T14:10:59.270Z,4.50
2022-10-29T14:13:43.515Z,4.18
2022-10-29T14:16:12.121Z,3.35
2022-10-29T14:18:41.728Z,4.28
2022-10-29T14:23:57.410Z,3.30
2022-10-29T14:26:24.922Z,7.38
2022-10-29T14:28:52.597Z,5.03
2022-10-29T14:31:21.127Z,4.78
2022-10-29T14:33:59.002Z,5.63
2022-10-29T14:36:28.205Z,7.00
2022-10-29T14:39:03.145Z,17.60
2022-10-29T14:41:31.445Z,9.18
2022-10-29T14:44:04.092Z,8.88
2022-10-29T14:46:34.188Z,8.48
2022-10-29T14:49:12.371Z,8.90
2022-10-29T14:51:47.893Z,4.43
2022-10-29T14:54:22.713Z,7.28
2022-10-29T14:56:53.985Z,5.22
2022-10-29T14:59:26.427Z,6.60
2022-10-29T15:02:05.720Z,49.30
2022-10-29T15:04:56.758Z,15.40
2022-10-29T15:07:23.501Z,13.85
2022-10-29T15:10:01.766Z,6.90
2022-10-29T15:12:36.963Z,10.43
2022-10-29T15:15:21.147Z,16.77
2022-10-29T15:17:59.530Z,5.63
2022-10-29T15:20:44.470Z,12.73
2022-10-29T15:23:41.354Z,11.18
2022-10-29T15:26:14.210Z,13.77
2022-10-29T15:28:43.377Z,8.63
2022-10-29T15:31:24.312Z,10.70
2022-10-29T15:33:53.500Z,9.68
2022-10-29T15:36:20.790Z,12.63
2022-10-29T15:38:52.043Z,11.07
2022-10-29T15:41:46.291Z,13.75
2022-10-29T15:44:35.415Z,16.77
2022-10-29T15:47:18.783Z,35.05
2022-10-29T15:49:45.458Z,23.25
2022-10-29T15:52:17.631Z,15.77
2022-10-29T15:54:45.086Z,12.52
2022-10-29T15:57:14.370Z,15.82
2022-10-29T15:59:41.712Z,17.70
2022-10-29T16:02:13.644Z,14.85
2022-10-29T16:04:40.746Z,15.27
2022-10-29T16:07:12.492Z,12.48
2022-10-29T16:09:43.658Z,13.35
2022-10-29T16:12:10.975Z,17.92
2022-10-29T16:14:37.527Z,24.95
2022-10-29T16:17:10.350Z,35.95
2022-10-29T16:19:36.954Z,34.10
2022-10-29T16:22:03.553Z,24.88
2022-10-29T16:24:30.342Z,27.95
2022-10-29T16:26:56.977Z,23.85
2022-10-29T16:29:23.813Z,21.58
2022-10-29T16:31:50.353Z,18.60
2022-10-29T16:34:19.386Z,17.05
2022-10-29T16:36:48.875Z,16.25
2022-10-29T16:39:15.532Z,13.77
2022-10-29T16:41:42.200Z,14.38
2022-10-29T16:44:08.785Z,15.80
2022-10-29T16:46:35.337Z,16.58
2022-10-29T16:49:01.920Z,14.88
2022-10-29T16:51:28.522Z,14.77
2022-10-29T16:53:55.131Z,16.10
2022-10-29T16:56:21.819Z,15.68
2022-10-29T16:58:48.439Z,26.83
2022-10-29T17:01:15.296Z,13.68
2022-10-29T17:03:42.064Z,20.30
2022-10-29T17:06:10.483Z,17.10
2022-10-29T17:08:38.167Z,13.77
2022-10-29T17:11:06.682Z,14.40
2022-10-29T17:13:34.441Z,16.33
2022-10-29T17:16:01.271Z,18.90
2022-10-29T17:18:27.843Z,15.55
2022-10-29T17:20:59.112Z,16.48
2022-10-29T17:23:26.064Z,18.42
2022-10-29T17:25:57.289Z,14.52
2022-10-29T17:28:25.686Z,14.07
2022-10-29T17:30:52.625Z,11.30
2022-10-29T17:33:19.627Z,18.23
2022-10-29T17:35:46.267Z,11.27
2022-10-29T17:38:12.900Z,17.58
2022-10-29T17:40:39.913Z,15.50
2022-10-29T17:43:06.681Z,16.10
2022-10-29T17:45:33.354Z,14.55
2022-10-29T17:48:00.404Z,12.65
2022-10-29T17:50:27.386Z,13.77
2022-10-29T17:52:54.920Z,13.80
2022-10-29T17:55:21.458Z,13.88
2022-10-29T17:57:47.980Z,16.08
2022-10-29T18:00:15.233Z,18.67
2022-10-29T18:02:42.201Z,15.38
2022-10-29T18:05:09.121Z,17.25
2022-10-29T18:07:35.900Z,17.48
2022-10-29T18:10:02.552Z,18.77
2022-10-29T18:12:29.327Z,18.52
2022-10-29T18:14:56.058Z,10.25
2022-10-29T18:17:22.853Z,16.60
2022-10-29T18:19:49.801Z,17.05
2022-10-29T18:22:16.746Z,14.05
2022-10-29T18:24:43.433Z,15.43
2022-10-29T18:27:10.233Z,10.95
2022-10-29T18:29:36.887Z,11.55
2022-10-29T18:32:03.707Z,11.80
2022-10-29T18:34:31.754Z,13.20
2022-10-29T18:36:58.420Z,11.95
2022-10-29T18:39:25.227Z,14.57
2022-10-29T18:41:54.934Z,14.80
2022-10-29T18:44:21.520Z,15.90
2022-10-29T18:46:48.213Z,15.50
2022-10-29T18:49:15.563Z,14.88
2022-10-29T18:51:42.434Z,14.73
2022-10-29T18:54:11.838Z,17.98
2022-10-29T18:56:38.949Z,20.02
2022-10-29T18:59:05.841Z,18.35
2022-10-29T19:01:34.675Z,16.55
2022-10-29T19:04:04.017Z,16.27
2022-10-29T19:06:32.640Z,15.85
2022-10-29T19:09:04.451Z,17.55
2022-10-29T19:11:31.946Z,16.27
2022-10-29T19:14:01.088Z,15.23
2022-10-29T19:16:32.091Z,14.55
2022-10-29T19:19:00.965Z,13.60
2022-10-29T19:21:27.881Z,14.02
2022-10-29T19:23:59.662Z,15.40
2022-10-29T19:26:30.230Z,16.83
2022-10-29T19:28:59.976Z,15.82
2022-10-29T19:31:28.175Z,14.88
2022-10-29T19:33:58.002Z,13.77
2022-10-29T19:36:26.795Z,15.73
2022-10-29T19:38:53.709Z,14.37
2022-10-29T19:41:20.519Z,15.90
2022-10-29T19:43:47.310Z,16.48
2022-10-29T19:46:17.069Z,15.50
2022-10-29T19:51:15.316Z,17.75
2022-10-29T19:53:41.938Z,17.50
2022-10-29T19:56:11.507Z,16.95
2022-10-29T19:58:38.099Z,17.42
2022-10-29T20:01:07.388Z,17.10
2022-10-29T20:03:34.400Z,17.60
2022-10-29T20:06:00.979Z,17.05
2022-10-29T20:08:27.633Z,17.92
2022-10-29T20:10:55.870Z,17.10
2022-10-29T20:13:22.869Z,17.67
2022-10-29T20:15:49.734Z,16.63
2022-10-29T20:18:16.444Z,14.20
2022-10-29T20:20:43.314Z,11.90
2022-10-29T20:23:10.142Z,12.13
2022-10-29T20:25:39.646Z,11.88
2022-10-29T20:28:06.463Z,10.57
2022-10-29T20:30:33.066Z,10.80
2022-10-29T20:32:59.956Z,10.98
2022-10-29T20:35:26.781Z,11.38
2022-10-29T20:37:53.653Z,10.10
2022-10-29T20:40:20.384Z,11.93
2022-10-29T20:42:50.742Z,13.88
2022-10-29T20:45:19.604Z,10.43
2022-10-29T20:47:46.284Z,11.90
2022-10-29T20:50:12.928Z,13.02
2022-10-29T20:52:43.180Z,13.13
2022-10-29T20:55:12.396Z,12.82
2022-10-29T20:57:39.094Z,11.65
2022-10-29T21:00:06.636Z,11.18
2022-10-29T21:02:33.986Z,11.15
2022-10-29T21:05:00.661Z,11.07
2022-10-29T21:07:27.369Z,11.23
2022-10-29T21:09:53.975Z,12.38
2022-10-29T21:12:20.615Z,11.95
2022-10-29T21:14:47.324Z,10.60
2022-10-29T21:17:14.514Z,12.20
2022-10-29T21:19:41.157Z,10.82
2022-10-29T21:22:07.894Z,10.88
2022-10-29T21:24:35.610Z,10.55
2022-10-29T21:27:02.722Z,10.90
2022-10-29T21:29:29.391Z,11.07
2022-10-29T21:31:56.109Z,11.68
2022-10-29T21:34:23.097Z,9.00
2022-10-29T21:36:49.993Z,9.38
2022-10-29T21:39:18.755Z,9.43
2022-10-29T21:41:45.457Z,9.40
2022-10-29T21:44:12.184Z,8.75
2022-10-29T21:46:38.782Z,9.60
2022-10-29T21:49:05.479Z,9.15
2022-10-29T21:51:32.244Z,9.23
2022-10-29T21:53:58.867Z,8.30
2022-10-29T21:56:25.612Z,7.43
2022-10-29T21:58:55.048Z,10.07
2022-10-29T22:01:21.876Z,7.97
2022-10-29T22:03:48.807Z,8.45
2022-10-29T22:06:20.600Z,9.75
2022-10-29T22:08:51.863Z,8.13
2022-10-29T22:11:18.424Z,8.88
2022-10-29T22:13:45.063Z,8.88
2022-10-29T22:16:11.954Z,9.48
2022-10-29T22:18:39.480Z,9.32
2022-10-29T22:21:14.801Z,10.00
2022-10-29T22:23:43.375Z,10.10
2022-10-29T22:26:10.252Z,10.05
2022-10-29T22:28:36.870Z,9.60
2022-10-29T22:31:04.528Z,10.13
2022-10-29T22:33:32.032Z,10.50
2022-10-29T22:36:10.320Z,9.55
2022-10-29T22:38:37.405Z,10.52
2022-10-29T22:41:08.322Z,10.75
2022-10-29T22:43:35.502Z,9.85
2022-10-29T22:46:03.593Z,10.73
2022-10-29T22:48:30.496Z,10.00
2022-10-29T22:51:03.071Z,10.90
2022-10-29T22:53:30.165Z,10.95
2022-10-29T22:55:56.736Z,10.27
2022-10-29T22:58:23.484Z,10.73
2022-10-29T23:01:00.915Z,10.18
2022-10-29T23:03:27.512Z,9.48
2022-10-29T23:06:01.878Z,11.20
2022-10-29T23:08:29.174Z,11.95
2022-10-29T23:10:55.721Z,12.05
2022-10-29T23:13:22.341Z,10.35
2022-10-29T23:15:53.415Z,10.32
2022-10-29T23:18:20.061Z,10.98
2022-10-29T23:20:50.214Z,10.20
2022-10-29T23:23:17.129Z,11.02
2022-10-29T23:25:43.651Z,11.85
2022-10-29T23:28:10.201Z,8.57
2022-10-29T23:30:36.838Z,7.72
2022-10-29T23:33:03.551Z,8.82
2022-10-29T23:35:30.111Z,8.80
2022-10-29T23:37:57.027Z,8.40
2022-10-29T23:40:23.803Z,8.43
2022-10-29T23:42:50.370Z,9.05
2022-10-29T23:45:17.158Z,8.23
2022-10-29T23:47:43.852Z,8.07
2022-10-29T23:50:10.550Z,7.28
2022-10-29T23:52:37.202Z,6.78
2022-10-29T23:55:03.906Z,6.03
2022-10-29T23:57:30.522Z,7.30
2022-10-29T23:59:57.128Z,6.80
